sensor_id;sensor_type;location;lat;lon;timestamp;temperature;humidity
22917;DHT22;11624;53.250;7.456;2023-11-18T00:00:31;8.78;55.87
22917;DHT22;11624;53.250;7.456;2023-11-18T00:03:00;8.76;55.90
22917;DHT22;11624;53.250;7.456;2023-11-18T00:05:28;8.73;55.94
22917;DHT22;11624;53.250;7.456;2023-11-18T00:07:58;8.72;55.86
22917;DHT22;11624;53.250;7.456;2023-11-18T00:10:27;8.70;55.92
22917;DHT22;11624;53.250;7.456;2023-11-18T00:12:56;8.67;55.94
22917;DHT22;11624;53.250;7.456;2023-11-18T00:15:24;8.67;55.93
22917;DHT22;11624;53.250;7.456;2023-11-18T00:17:53;8.65;56.01
22917;DHT22;11624;53.250;7.456;2023-11-18T00:20:22;8.63;56.03
22917;DHT22;11624;53.250;7.456;2023-11-18T00:22:51;8.61;55.99
22917;DHT22;11624;53.250;7.456;2023-11-18T00:25:21;8.60;55.94
22917;DHT22;11624;53.250;7.456;2023-11-18T00:27:50;8.57;55.97
22917;DHT22;11624;53.250;7.456;2023-11-18T00:30:19;8.53;55.93
22917;DHT22;11624;53.250;7.456;2023-11-18T00:32:47;8.51;55.93
22917;DHT22;11624;53.250;7.456;2023-11-18T00:35:16;8.48;56.03
22917;DHT22;11624;53.250;7.456;2023-11-18T00:37:44;8.49;56.12
22917;DHT22;11624;53.250;7.456;2023-11-18T00:40:13;8.48;56.19
22917;DHT22;11624;53.250;7.456;2023-11-18T00:42:46;8.47;56.17
22917;DHT22;11624;53.250;7.456;2023-11-18T00:45:15;8.44;56.19
22917;DHT22;11624;53.250;7.456;2023-11-18T00:47:43;8.41;56.14
22917;DHT22;11624;53.250;7.456;2023-11-18T00:50:11;8.37;56.21
22917;DHT22;11624;53.250;7.456;2023-11-18T00:52:40;8.36;56.26
22917;DHT22;11624;53.250;7.456;2023-11-18T00:55:09;8.34;56.28
22917;DHT22;11624;53.250;7.456;2023-11-18T00:57:38;8.33;56.27
22917;DHT22;11624;53.250;7.456;2023-11-18T01:00:12;8.30;55.95
22917;DHT22;11624;53.250;7.456;2023-11-18T01:02:43;8.29;56.32
22917;DHT22;11624;53.250;7.456;2023-11-18T01:05:13;8.30;56.37
22917;DHT22;11624;53.250;7.456;2023-11-18T01:07:42;8.30;56.43
22917;DHT22;11624;53.250;7.456;2023-11-18T01:10:11;8.33;56.58
22917;DHT22;11624;53.250;7.456;2023-11-18T01:12:41;8.38;56.67
22917;DHT22;11624;53.250;7.456;2023-11-18T01:15:13;8.43;56.73
22917;DHT22;11624;53.250;7.456;2023-11-18T01:17:42;8.47;56.85
22917;DHT22;11624;53.250;7.456;2023-11-18T01:20:11;8.48;56.96
22917;DHT22;11624;53.250;7.456;2023-11-18T01:22:41;8.51;57.01
22917;DHT22;11624;53.250;7.456;2023-11-18T01:25:12;8.52;57.05
22917;DHT22;11624;53.250;7.456;2023-11-18T01:27:41;8.51;57.17
22917;DHT22;11624;53.250;7.456;2023-11-18T01:30:10;8.50;57.27
22917;DHT22;11624;53.250;7.456;2023-11-18T01:32:40;8.48;57.31
22917;DHT22;11624;53.250;7.456;2023-11-18T01:35:10;8.46;57.51
22917;DHT22;11624;53.250;7.456;2023-11-18T01:37:39;8.49;57.58
22917;DHT22;11624;53.250;7.456;2023-11-18T01:40:09;8.44;57.74
22917;DHT22;11624;53.250;7.456;2023-11-18T01:42:42;8.47;57.66
22917;DHT22;11624;53.250;7.456;2023-11-18T01:45:10;8.35;58.15
22917;DHT22;11624;53.250;7.456;2023-11-18T01:47:41;8.42;58.01
22917;DHT22;11624;53.250;7.456;2023-11-18T01:50:10;8.47;57.98
22917;DHT22;11624;53.250;7.456;2023-11-18T01:52:42;8.49;57.95
22917;DHT22;11624;53.250;7.456;2023-11-18T01:55:13;8.36;58.35
22917;DHT22;11624;53.250;7.456;2023-11-18T01:57:47;8.36;57.91
22917;DHT22;11624;53.250;7.456;2023-11-18T02:00:18;8.41;58.40
22917;DHT22;11624;53.250;7.456;2023-11-18T02:02:48;8.42;58.29
22917;DHT22;11624;53.250;7.456;2023-11-18T02:05:17;8.42;58.37
22917;DHT22;11624;53.250;7.456;2023-11-18T02:07:45;8.49;58.31
22917;DHT22;11624;53.250;7.456;2023-11-18T02:10:14;8.48;58.33
22917;DHT22;11624;53.250;7.456;2023-11-18T02:12:50;8.48;58.29
22917;DHT22;11624;53.250;7.456;2023-11-18T02:15:23;8.49;58.38
22917;DHT22;11624;53.250;7.456;2023-11-18T02:17:56;8.52;58.23
22917;DHT22;11624;53.250;7.456;2023-11-18T02:20:26;8.45;58.64
22917;DHT22;11624;53.250;7.456;2023-11-18T02:22:56;8.45;58.71
22917;DHT22;11624;53.250;7.456;2023-11-18T02:25:27;8.33;58.90
22917;DHT22;11624;53.250;7.456;2023-11-18T02:27:57;8.24;59.30
22917;DHT22;11624;53.250;7.456;2023-11-18T02:30:26;8.28;59.46
22917;DHT22;11624;53.250;7.456;2023-11-18T02:33:01;8.32;59.19
22917;DHT22;11624;53.250;7.456;2023-11-18T02:35:38;8.41;58.85
22917;DHT22;11624;53.250;7.456;2023-11-18T02:38:10;8.45;58.96
22917;DHT22;11624;53.250;7.456;2023-11-18T02:40:41;8.38;58.95
22917;DHT22;11624;53.250;7.456;2023-11-18T02:43:12;8.37;59.05
22917;DHT22;11624;53.250;7.456;2023-11-18T02:45:42;8.32;59.36
22917;DHT22;11624;53.250;7.456;2023-11-18T02:48:11;8.37;59.08
22917;DHT22;11624;53.250;7.456;2023-11-18T02:50:39;8.31;59.18
22917;DHT22;11624;53.250;7.456;2023-11-18T02:53:08;8.31;59.09
22917;DHT22;11624;53.250;7.456;2023-11-18T02:55:37;8.28;59.12
22917;DHT22;11624;53.250;7.456;2023-11-18T02:58:25;8.21;58.71
22917;DHT22;11624;53.250;7.456;2023-11-18T03:00:53;8.22;59.20
22917;DHT22;11624;53.250;7.456;2023-11-18T03:03:21;8.18;59.32
22917;DHT22;11624;53.250;7.456;2023-11-18T03:05:50;8.19;59.28
22917;DHT22;11624;53.250;7.456;2023-11-18T03:08:18;8.24;59.16
22917;DHT22;11624;53.250;7.456;2023-11-18T03:10:46;8.17;59.30
22917;DHT22;11624;53.250;7.456;2023-11-18T03:13:19;8.20;59.15
22917;DHT22;11624;53.250;7.456;2023-11-18T03:15:49;8.09;59.44
22917;DHT22;11624;53.250;7.456;2023-11-18T03:18:19;8.14;59.32
22917;DHT22;11624;53.250;7.456;2023-11-18T03:20:47;8.17;59.21
22917;DHT22;11624;53.250;7.456;2023-11-18T03:23:16;8.11;59.36
22917;DHT22;11624;53.250;7.456;2023-11-18T03:25:45;8.17;59.18
22917;DHT22;11624;53.250;7.456;2023-11-18T03:28:13;8.21;58.99
22917;DHT22;11624;53.250;7.456;2023-11-18T03:30:41;8.05;59.28
22917;DHT22;11624;53.250;7.456;2023-11-18T03:33:11;7.96;59.41
22917;DHT22;11624;53.250;7.456;2023-11-18T03:35:40;7.98;59.45
22917;DHT22;11624;53.250;7.456;2023-11-18T03:38:09;7.99;59.33
22917;DHT22;11624;53.250;7.456;2023-11-18T03:40:37;7.91;59.49
22917;DHT22;11624;53.250;7.456;2023-11-18T03:43:05;7.90;59.48
22917;DHT22;11624;53.250;7.456;2023-11-18T03:45:34;7.67;60.07
22917;DHT22;11624;53.250;7.456;2023-11-18T03:48:03;7.65;60.06
22917;DHT22;11624;53.250;7.456;2023-11-18T03:50:32;7.72;59.73
22917;DHT22;11624;53.250;7.456;2023-11-18T03:53:01;7.76;59.65
22917;DHT22;11624;53.250;7.456;2023-11-18T03:55:30;7.76;59.62
22917;DHT22;11624;53.250;7.456;2023-11-18T03:57:59;7.85;59.38
22917;DHT22;11624;53.250;7.456;2023-11-18T04:00:27;7.87;59.25
22917;DHT22;11624;53.250;7.456;2023-11-18T04:02:57;7.89;59.22
22917;DHT22;11624;53.250;7.456;2023-11-18T04:05:25;7.94;59.08
22917;DHT22;11624;53.250;7.456;2023-11-18T04:07:55;7.89;59.06
22917;DHT22;11624;53.250;7.456;2023-11-18T04:10:23;7.86;59.20
22917;DHT22;11624;53.250;7.456;2023-11-18T04:12:52;7.74;59.32
22917;DHT22;11624;53.250;7.456;2023-11-18T04:15:20;7.70;59.73
22917;DHT22;11624;53.250;7.456;2023-11-18T04:17:48;7.77;59.47
22917;DHT22;11624;53.250;7.456;2023-11-18T04:20:17;7.83;59.32
22917;DHT22;11624;53.250;7.456;2023-11-18T04:22:45;7.84;59.25
22917;DHT22;11624;53.250;7.456;2023-11-18T04:25:15;7.81;59.23
22917;DHT22;11624;53.250;7.456;2023-11-18T04:27:44;7.86;59.21
22917;DHT22;11624;53.250;7.456;2023-11-18T04:30:13;7.88;59.16
22917;DHT22;11624;53.250;7.456;2023-11-18T04:32:42;7.79;59.32
22917;DHT22;11624;53.250;7.456;2023-11-18T04:35:11;7.61;59.71
22917;DHT22;11624;53.250;7.456;2023-11-18T04:37:40;7.54;59.73
22917;DHT22;11624;53.250;7.456;2023-11-18T04:40:11;7.58;59.96
22917;DHT22;11624;53.250;7.456;2023-11-18T04:42:41;7.67;59.67
22917;DHT22;11624;53.250;7.456;2023-11-18T04:45:11;7.67;59.74
22917;DHT22;11624;53.250;7.456;2023-11-18T04:47:41;7.67;59.67
22917;DHT22;11624;53.250;7.456;2023-11-18T04:50:12;7.64;59.95
22917;DHT22;11624;53.250;7.456;2023-11-18T04:52:40;7.56;60.28
22917;DHT22;11624;53.250;7.456;2023-11-18T04:55:09;7.56;60.31
22917;DHT22;11624;53.250;7.456;2023-11-18T04:57:42;7.50;60.64
22917;DHT22;11624;53.250;7.456;2023-11-18T05:00:11;7.65;60.23
22917;DHT22;11624;53.250;7.456;2023-11-18T05:02:43;7.43;61.09
22917;DHT22;11624;53.250;7.456;2023-11-18T05:05:15;7.35;61.47
22917;DHT22;11624;53.250;7.456;2023-11-18T05:07:43;7.41;61.36
22917;DHT22;11624;53.250;7.456;2023-11-18T05:10:12;7.29;61.72
22917;DHT22;11624;53.250;7.456;2023-11-18T05:12:42;7.37;61.47
22917;DHT22;11624;53.250;7.456;2023-11-18T05:15:11;7.30;61.68
22917;DHT22;11624;53.250;7.456;2023-11-18T05:17:40;7.29;61.80
22917;DHT22;11624;53.250;7.456;2023-11-18T05:20:09;7.26;61.91
22917;DHT22;11624;53.250;7.456;2023-11-18T05:22:38;7.27;61.89
22917;DHT22;11624;53.250;7.456;2023-11-18T05:25:07;7.28;61.72
22917;DHT22;11624;53.250;7.456;2023-11-18T05:27:37;7.27;61.73
22917;DHT22;11624;53.250;7.456;2023-11-18T05:30:10;7.28;61.50
22917;DHT22;11624;53.250;7.456;2023-11-18T05:32:38;7.25;61.70
22917;DHT22;11624;53.250;7.456;2023-11-18T05:35:07;7.26;61.79
22917;DHT22;11624;53.250;7.456;2023-11-18T05:37:38;7.24;61.70
22917;DHT22;11624;53.250;7.456;2023-11-18T05:40:09;7.29;61.62
22917;DHT22;11624;53.250;7.456;2023-11-18T05:42:42;7.12;61.97
22917;DHT22;11624;53.250;7.456;2023-11-18T05:45:14;7.00;62.05
22917;DHT22;11624;53.250;7.456;2023-11-18T05:47:55;7.05;62.18
22917;DHT22;11624;53.250;7.456;2023-11-18T05:50:24;7.20;61.85
22917;DHT22;11624;53.250;7.456;2023-11-18T05:52:53;7.16;61.92
22917;DHT22;11624;53.250;7.456;2023-11-18T05:55:22;7.64;60.35
22917;DHT22;11624;53.250;7.456;2023-11-18T05:57:50;7.55;60.63
22917;DHT22;11624;53.250;7.456;2023-11-18T06:00:20;7.89;59.23
22917;DHT22;11624;53.250;7.456;2023-11-18T06:03:01;7.57;60.67
22917;DHT22;11624;53.250;7.456;2023-11-18T06:05:30;7.59;60.70
22917;DHT22;11624;53.250;7.456;2023-11-18T06:08:02;7.54;61.01
22917;DHT22;11624;53.250;7.456;2023-11-18T06:10:31;7.59;61.01
22917;DHT22;11624;53.250;7.456;2023-11-18T06:13:01;7.67;60.87
22917;DHT22;11624;53.250;7.456;2023-11-18T06:15:32;7.72;60.65
22917;DHT22;11624;53.250;7.456;2023-11-18T06:18:03;7.79;60.72
22917;DHT22;11624;53.250;7.456;2023-11-18T06:20:34;7.93;60.21
22917;DHT22;11624;53.250;7.456;2023-11-18T06:23:03;7.97;60.15
22917;DHT22;11624;53.250;7.456;2023-11-18T06:25:31;7.98;60.12
22917;DHT22;11624;53.250;7.456;2023-11-18T06:28:01;8.00;60.02
22917;DHT22;11624;53.250;7.456;2023-11-18T06:30:32;8.00;59.92
22917;DHT22;11624;53.250;7.456;2023-11-18T06:33:00;7.94;60.18
22917;DHT22;11624;53.250;7.456;2023-11-18T06:35:29;7.96;60.13
22917;DHT22;11624;53.250;7.456;2023-11-18T06:38:00;7.81;60.53
22917;DHT22;11624;53.250;7.456;2023-11-18T06:40:29;7.90;60.35
22917;DHT22;11624;53.250;7.456;2023-11-18T06:42:58;7.85;60.55
22917;DHT22;11624;53.250;7.456;2023-11-18T06:45:29;7.70;61.23
22917;DHT22;11624;53.250;7.456;2023-11-18T06:48:00;7.83;60.96
22917;DHT22;11624;53.250;7.456;2023-11-18T06:50:29;7.90;60.77
22917;DHT22;11624;53.250;7.456;2023-11-18T06:52:58;8.01;60.63
22917;DHT22;11624;53.250;7.456;2023-11-18T06:55:27;8.06;60.61
22917;DHT22;11624;53.250;7.456;2023-11-18T06:57:55;8.00;60.91
22917;DHT22;11624;53.250;7.456;2023-11-18T07:00:23;7.93;61.29
22917;DHT22;11624;53.250;7.456;2023-11-18T07:02:55;8.04;61.17
22917;DHT22;11624;53.250;7.456;2023-11-18T07:05:26;8.21;60.79
22917;DHT22;11624;53.250;7.456;2023-11-18T07:07:54;8.23;60.91
22917;DHT22;11624;53.250;7.456;2023-11-18T07:10:23;8.23;61.10
22917;DHT22;11624;53.250;7.456;2023-11-18T07:12:52;8.32;61.03
22917;DHT22;11624;53.250;7.456;2023-11-18T07:15:20;8.33;61.21
22917;DHT22;11624;53.250;7.456;2023-11-18T07:17:49;8.32;61.18
22917;DHT22;11624;53.250;7.456;2023-11-18T07:20:22;8.34;61.31
22917;DHT22;11624;53.250;7.456;2023-11-18T07:22:52;8.39;61.26
22917;DHT22;11624;53.250;7.456;2023-11-18T07:25:21;8.51;61.09
22917;DHT22;11624;53.250;7.456;2023-11-18T07:27:49;8.65;60.82
22917;DHT22;11624;53.250;7.456;2023-11-18T07:30:18;8.75;60.66
22917;DHT22;11624;53.250;7.456;2023-11-18T07:32:47;8.68;60.73
22917;DHT22;11624;53.250;7.456;2023-11-18T07:35:16;8.79;60.73
22917;DHT22;11624;53.250;7.456;2023-11-18T07:37:44;8.85;60.58
22917;DHT22;11624;53.250;7.456;2023-11-18T07:40:14;8.86;60.43
22917;DHT22;11624;53.250;7.456;2023-11-18T07:42:49;8.87;60.58
22917;DHT22;11624;53.250;7.456;2023-11-18T07:45:17;8.89;60.75
22917;DHT22;11624;53.250;7.456;2023-11-18T07:47:45;8.88;60.86
22917;DHT22;11624;53.250;7.456;2023-11-18T07:50:16;8.86;60.94
22917;DHT22;11624;53.250;7.456;2023-11-18T07:52:47;8.94;60.86
22917;DHT22;11624;53.250;7.456;2023-11-18T07:55:17;8.91;60.93
22917;DHT22;11624;53.250;7.456;2023-11-18T07:57:45;9.02;60.85
22917;DHT22;11624;53.250;7.456;2023-11-18T08:00:14;9.09;60.78
22917;DHT22;11624;53.250;7.456;2023-11-18T08:02:42;9.18;60.70
22917;DHT22;11624;53.250;7.456;2023-11-18T08:05:12;9.25;60.54
22917;DHT22;11624;53.250;7.456;2023-11-18T08:07:42;9.32;60.44
22917;DHT22;11624;53.250;7.456;2023-11-18T08:10:12;9.35;60.27
22917;DHT22;11624;53.250;7.456;2023-11-18T08:12:47;9.37;60.49
22917;DHT22;11624;53.250;7.456;2023-11-18T08:15:16;9.47;60.59
22917;DHT22;11624;53.250;7.456;2023-11-18T08:17:45;9.60;60.58
22917;DHT22;11624;53.250;7.456;2023-11-18T08:20:14;9.57;60.55
22917;DHT22;11624;53.250;7.456;2023-11-18T08:22:42;9.56;60.67
22917;DHT22;11624;53.250;7.456;2023-11-18T08:25:13;9.63;60.48
22917;DHT22;11624;53.250;7.456;2023-11-18T08:27:42;9.60;60.76
22917;DHT22;11624;53.250;7.456;2023-11-18T08:30:14;9.63;60.51
22917;DHT22;11624;53.250;7.456;2023-11-18T08:32:45;9.71;60.61
22917;DHT22;11624;53.250;7.456;2023-11-18T08:35:15;9.66;60.54
22917;DHT22;11624;53.250;7.456;2023-11-18T08:37:44;9.75;60.68
22917;DHT22;11624;53.250;7.456;2023-11-18T08:40:12;9.82;60.63
22917;DHT22;11624;53.250;7.456;2023-11-18T08:42:43;9.91;60.44
22917;DHT22;11624;53.250;7.456;2023-11-18T08:45:17;9.95;60.21
22917;DHT22;11624;53.250;7.456;2023-11-18T08:47:50;9.98;60.28
22917;DHT22;11624;53.250;7.456;2023-11-18T08:50:21;9.97;60.31
22917;DHT22;11624;53.250;7.456;2023-11-18T08:52:51;10.11;60.04
22917;DHT22;11624;53.250;7.456;2023-11-18T08:55:27;10.14;59.80
22917;DHT22;11624;53.250;7.456;2023-11-18T08:58:10;10.07;59.95
22917;DHT22;11624;53.250;7.456;2023-11-18T09:00:50;10.09;59.67
22917;DHT22;11624;53.250;7.456;2023-11-18T09:03:23;10.07;59.96
22917;DHT22;11624;53.250;7.456;2023-11-18T09:05:57;10.09;60.17
22917;DHT22;11624;53.250;7.456;2023-11-18T09:08:27;10.06;60.13
22917;DHT22;11624;53.250;7.456;2023-11-18T09:10:59;10.09;60.14
22917;DHT22;11624;53.250;7.456;2023-11-18T09:13:28;10.11;60.31
22917;DHT22;11624;53.250;7.456;2023-11-18T09:15:59;10.14;59.84
22917;DHT22;11624;53.250;7.456;2023-11-18T09:18:28;10.09;60.28
22917;DHT22;11624;53.250;7.456;2023-11-18T09:20:57;10.16;60.09
22917;DHT22;11624;53.250;7.456;2023-11-18T09:23:29;10.27;59.93
22917;DHT22;11624;53.250;7.456;2023-11-18T09:25:59;10.21;60.13
22917;DHT22;11624;53.250;7.456;2023-11-18T09:28:27;10.28;59.99
22917;DHT22;11624;53.250;7.456;2023-11-18T09:30:58;10.25;60.08
22917;DHT22;11624;53.250;7.456;2023-11-18T09:33:29;10.35;60.15
22917;DHT22;11624;53.250;7.456;2023-11-18T09:36:00;10.36;60.12
22917;DHT22;11624;53.250;7.456;2023-11-18T09:38:29;10.42;59.99
22917;DHT22;11624;53.250;7.456;2023-11-18T09:40:59;10.45;59.81
22917;DHT22;11624;53.250;7.456;2023-11-18T09:43:30;10.50;59.83
22917;DHT22;11624;53.250;7.456;2023-11-18T09:46:04;10.49;59.43
22917;DHT22;11624;53.250;7.456;2023-11-18T09:48:44;10.45;59.56
22917;DHT22;11624;53.250;7.456;2023-11-18T09:51:20;10.46;59.54
22917;DHT22;11624;53.250;7.456;2023-11-18T09:53:50;10.43;60.02
22917;DHT22;11624;53.250;7.456;2023-11-18T09:56:30;10.42;59.27
22917;DHT22;11624;53.250;7.456;2023-11-18T09:59:10;10.51;59.45
22917;DHT22;11624;53.250;7.456;2023-11-18T10:01:50;10.60;59.26
22917;DHT22;11624;53.250;7.456;2023-11-18T10:04:20;10.54;59.96
22917;DHT22;11624;53.250;7.456;2023-11-18T10:06:49;10.54;59.92
22917;DHT22;11624;53.250;7.456;2023-11-18T10:09:20;10.63;59.96
22917;DHT22;11624;53.250;7.456;2023-11-18T10:11:55;10.70;59.81
22917;DHT22;11624;53.250;7.456;2023-11-18T10:14:33;10.65;59.83
22917;DHT22;11624;53.250;7.456;2023-11-18T10:17:05;10.48;59.54
22917;DHT22;11624;53.250;7.456;2023-11-18T10:19:49;10.58;59.61
22917;DHT22;11624;53.250;7.456;2023-11-18T10:22:21;10.74;59.57
22917;DHT22;11624;53.250;7.456;2023-11-18T10:24:52;10.80;59.73
22917;DHT22;11624;53.250;7.456;2023-11-18T10:27:23;10.80;59.33
22917;DHT22;11624;53.250;7.456;2023-11-18T10:29:56;10.83;59.24
22917;DHT22;11624;53.250;7.456;2023-11-18T10:32:26;10.96;59.23
22917;DHT22;11624;53.250;7.456;2023-11-18T10:34:56;10.95;59.41
22917;DHT22;11624;53.250;7.456;2023-11-18T10:37:25;11.07;59.35
22917;DHT22;11624;53.250;7.456;2023-11-18T10:40:04;10.88;58.64
22917;DHT22;11624;53.250;7.456;2023-11-18T10:42:33;10.86;59.45
22917;DHT22;11624;53.250;7.456;2023-11-18T10:45:01;10.87;59.32
22917;DHT22;11624;53.250;7.456;2023-11-18T10:47:33;10.84;59.31
22917;DHT22;11624;53.250;7.456;2023-11-18T10:50:03;10.79;59.64
22917;DHT22;11624;53.250;7.456;2023-11-18T10:52:32;10.93;59.57
22917;DHT22;11624;53.250;7.456;2023-11-18T10:55:09;10.95;59.57
22917;DHT22;11624;53.250;7.456;2023-11-18T10:57:40;10.99;59.57
22917;DHT22;11624;53.250;7.456;2023-11-18T11:00:11;10.97;59.41
22917;DHT22;11624;53.250;7.456;2023-11-18T11:02:43;10.96;59.52
22917;DHT22;11624;53.250;7.456;2023-11-18T11:05:27;10.93;59.15
22917;DHT22;11624;53.250;7.456;2023-11-18T11:08:01;10.94;59.48
22917;DHT22;11624;53.250;7.456;2023-11-18T11:10:32;11.00;59.45
22917;DHT22;11624;53.250;7.456;2023-11-18T11:13:04;11.03;59.21
22917;DHT22;11624;53.250;7.456;2023-11-18T11:15:40;11.02;58.73
22917;DHT22;11624;53.250;7.456;2023-11-18T11:18:28;11.02;58.85
22917;DHT22;11624;53.250;7.456;2023-11-18T11:21:07;11.08;58.83
22917;DHT22;11624;53.250;7.456;2023-11-18T11:23:45;11.07;58.75
22917;DHT22;11624;53.250;7.456;2023-11-18T11:26:31;11.11;58.77
22917;DHT22;11624;53.250;7.456;2023-11-18T11:29:22;11.11;58.19
22917;DHT22;11624;53.250;7.456;2023-11-18T11:32:02;11.15;58.50
22917;DHT22;11624;53.250;7.456;2023-11-18T11:34:48;11.00;58.86
22917;DHT22;11624;53.250;7.456;2023-11-18T11:37:25;11.08;59.11
22917;DHT22;11624;53.250;7.456;2023-11-18T11:39:55;11.13;59.12
22917;DHT22;11624;53.250;7.456;2023-11-18T11:42:26;11.00;59.44
22917;DHT22;11624;53.250;7.456;2023-11-18T11:44:55;11.14;59.34
22917;DHT22;11624;53.250;7.456;2023-11-18T11:47:26;11.17;58.91
22917;DHT22;11624;53.250;7.456;2023-11-18T11:50:03;11.14;58.83
22917;DHT22;11624;53.250;7.456;2023-11-18T11:52:40;11.15;58.83
22917;DHT22;11624;53.250;7.456;2023-11-18T11:55:19;11.05;58.67
22917;DHT22;11624;53.250;7.456;2023-11-18T11:57:51;11.11;59.25
22917;DHT22;11624;53.250;7.456;2023-11-18T12:00:22;11.14;59.08
22917;DHT22;11624;53.250;7.456;2023-11-18T12:02:53;11.13;59.36
22917;DHT22;11624;53.250;7.456;2023-11-18T12:05:25;11.20;59.17
22917;DHT22;11624;53.250;7.456;2023-11-18T12:07:55;11.22;58.77
22917;DHT22;11624;53.250;7.456;2023-11-18T12:10:26;11.27;58.90
22917;DHT22;11624;53.250;7.456;2023-11-18T12:13:08;11.19;58.76
22917;DHT22;11624;53.250;7.456;2023-11-18T12:15:48;11.18;58.98
22917;DHT22;11624;53.250;7.456;2023-11-18T12:18:22;11.31;59.09
22917;DHT22;11624;53.250;7.456;2023-11-18T12:20:52;11.33;58.86
22917;DHT22;11624;53.250;7.456;2023-11-18T12:23:24;11.38;58.79
22917;DHT22;11624;53.250;7.456;2023-11-18T12:25:54;11.24;59.15
22917;DHT22;11624;53.250;7.456;2023-11-18T12:28:28;11.14;58.50
22917;DHT22;11624;53.250;7.456;2023-11-18T12:30:58;11.17;59.30
22917;DHT22;11624;53.250;7.456;2023-11-18T12:34:01;11.17;58.72
22917;DHT22;11624;53.250;7.456;2023-11-18T12:37:17;11.23;58.77
22917;DHT22;11624;53.250;7.456;2023-11-18T12:42:59;11.30;59.11
22917;DHT22;11624;53.250;7.456;2023-11-18T12:45:43;11.33;58.48
22917;DHT22;11624;53.250;7.456;2023-11-18T12:48:14;11.38;58.83
22917;DHT22;11624;53.250;7.456;2023-11-18T12:50:43;11.44;58.95
22917;DHT22;11624;53.250;7.456;2023-11-18T12:53:14;11.45;58.80
22917;DHT22;11624;53.250;7.456;2023-11-18T12:55:46;11.39;59.06
22917;DHT22;11624;53.250;7.456;2023-11-18T12:58:17;11.37;59.14
22917;DHT22;11624;53.250;7.456;2023-11-18T13:00:45;11.33;59.29
22917;DHT22;11624;53.250;7.456;2023-11-18T13:03:14;11.25;59.40
22917;DHT22;11624;53.250;7.456;2023-11-18T13:05:45;11.33;59.22
22917;DHT22;11624;53.250;7.456;2023-11-18T13:08:15;11.42;59.24
22917;DHT22;11624;53.250;7.456;2023-11-18T13:10:43;11.54;58.96
22917;DHT22;11624;53.250;7.456;2023-11-18T13:13:12;11.46;59.20
22917;DHT22;11624;53.250;7.456;2023-11-18T13:15:44;11.46;59.27
22917;DHT22;11624;53.250;7.456;2023-11-18T13:18:12;11.51;59.18
22917;DHT22;11624;53.250;7.456;2023-11-18T13:20:41;11.44;59.47
22917;DHT22;11624;53.250;7.456;2023-11-18T13:23:24;11.46;59.24
22917;DHT22;11624;53.250;7.456;2023-11-18T13:25:55;11.54;59.20
22917;DHT22;11624;53.250;7.456;2023-11-18T13:28:24;11.49;59.44
22917;DHT22;11624;53.250;7.456;2023-11-18T13:30:53;11.45;59.56
22917;DHT22;11624;53.250;7.456;2023-11-18T13:33:21;11.60;59.27
22917;DHT22;11624;53.250;7.456;2023-11-18T13:35:51;11.61;59.25
22917;DHT22;11624;53.250;7.456;2023-11-18T13:38:20;11.61;59.31
22917;DHT22;11624;53.250;7.456;2023-11-18T13:40:50;11.66;59.23
22917;DHT22;11624;53.250;7.456;2023-11-18T13:43:20;11.64;59.28
22917;DHT22;11624;53.250;7.456;2023-11-18T13:45:53;11.59;59.22
22917;DHT22;11624;53.250;7.456;2023-11-18T13:48:23;11.61;59.70
22917;DHT22;11624;53.250;7.456;2023-11-18T13:50:52;11.58;59.70
22917;DHT22;11624;53.250;7.456;2023-11-18T13:53:20;11.58;59.79
22917;DHT22;11624;53.250;7.456;2023-11-18T13:55:51;11.58;59.73
22917;DHT22;11624;53.250;7.456;2023-11-18T13:58:19;11.47;59.95
22917;DHT22;11624;53.250;7.456;2023-11-18T14:00:49;11.55;59.88
22917;DHT22;11624;53.250;7.456;2023-11-18T14:03:18;11.68;59.67
22917;DHT22;11624;53.250;7.456;2023-11-18T14:05:51;11.60;59.62
22917;DHT22;11624;53.250;7.456;2023-11-18T14:08:19;11.67;59.66
22917;DHT22;11624;53.250;7.456;2023-11-18T14:10:47;11.60;59.84
22917;DHT22;11624;53.250;7.456;2023-11-18T14:13:30;11.64;59.71
22917;DHT22;11624;53.250;7.456;2023-11-18T14:16:01;11.61;59.92
22917;DHT22;11624;53.250;7.456;2023-11-18T14:18:30;11.67;59.81
22917;DHT22;11624;53.250;7.456;2023-11-18T14:20:59;11.72;59.73
22917;DHT22;11624;53.250;7.456;2023-11-18T14:23:28;11.72;59.78
22917;DHT22;11624;53.250;7.456;2023-11-18T14:25:56;11.68;59.99
22917;DHT22;11624;53.250;7.456;2023-11-18T14:28:25;11.67;59.96
22917;DHT22;11624;53.250;7.456;2023-11-18T14:30:56;11.61;60.18
22917;DHT22;11624;53.250;7.456;2023-11-18T14:33:24;11.62;60.10
22917;DHT22;11624;53.250;7.456;2023-11-18T14:35:53;11.61;60.32
22917;DHT22;11624;53.250;7.456;2023-11-18T14:38:23;11.59;60.44
22917;DHT22;11624;53.250;7.456;2023-11-18T14:40:51;11.62;60.39
22917;DHT22;11624;53.250;7.456;2023-11-18T14:43:20;11.64;60.33
22917;DHT22;11624;53.250;7.456;2023-11-18T14:45:48;11.56;60.71
22917;DHT22;11624;53.250;7.456;2023-11-18T14:48:18;11.49;60.86
22917;DHT22;11624;53.250;7.456;2023-11-18T14:50:47;11.58;60.73
22917;DHT22;11624;53.250;7.456;2023-11-18T14:53:15;11.55;60.75
22917;DHT22;11624;53.250;7.456;2023-11-18T14:55:44;11.55;60.72
22917;DHT22;11624;53.250;7.456;2023-11-18T14:58:12;11.53;61.04
22917;DHT22;11624;53.250;7.456;2023-11-18T15:00:41;11.69;60.62
22917;DHT22;11624;53.250;7.456;2023-11-18T15:03:09;11.45;61.33
22917;DHT22;11624;53.250;7.456;2023-11-18T15:05:41;11.30;61.76
22917;DHT22;11624;53.250;7.456;2023-11-18T15:08:11;11.29;62.12
22917;DHT22;11624;53.250;7.456;2023-11-18T15:10:40;11.27;62.25
22917;DHT22;11624;53.250;7.456;2023-11-18T15:13:11;11.28;61.99
22917;DHT22;11624;53.250;7.456;2023-11-18T15:15:43;11.09;62.98
22917;DHT22;11624;53.250;7.456;2023-11-18T15:18:14;11.22;62.37
22917;DHT22;11624;53.250;7.456;2023-11-18T15:20:46;11.17;62.52
22917;DHT22;11624;53.250;7.456;2023-11-18T15:23:16;11.23;62.60
22917;DHT22;11624;53.250;7.456;2023-11-18T15:25:45;11.18;62.76
22917;DHT22;11624;53.250;7.456;2023-11-18T15:28:13;11.20;62.47
22917;DHT22;11624;53.250;7.456;2023-11-18T15:30:42;11.26;62.80
22917;DHT22;11624;53.250;7.456;2023-11-18T15:33:11;11.34;62.50
22917;DHT22;11624;53.250;7.456;2023-11-18T15:35:41;11.38;62.56
22917;DHT22;11624;53.250;7.456;2023-11-18T15:38:13;11.42;62.26
22917;DHT22;11624;53.250;7.456;2023-11-18T15:40:48;11.31;62.74
22917;DHT22;11624;53.250;7.456;2023-11-18T15:43:18;11.36;62.70
22917;DHT22;11624;53.250;7.456;2023-11-18T15:45:47;11.26;63.15
22917;DHT22;11624;53.250;7.456;2023-11-18T15:48:15;11.34;63.11
22917;DHT22;11624;53.250;7.456;2023-11-18T15:50:44;11.41;62.88
22917;DHT22;11624;53.250;7.456;2023-11-18T15:53:13;11.43;62.59
22917;DHT22;11624;53.250;7.456;2023-11-18T15:55:42;11.46;62.89
22917;DHT22;11624;53.250;7.456;2023-11-18T15:58:15;11.55;62.55
22917;DHT22;11624;53.250;7.456;2023-11-18T16:00:46;11.58;62.31
22917;DHT22;11624;53.250;7.456;2023-11-18T16:03:15;11.46;62.63
22917;DHT22;11624;53.250;7.456;2023-11-18T16:05:43;11.46;62.74